Time;durP1;ratioP1;P1;durP2;ratioP2;P2;SDS_P1;SDS_P2;PMS_P1;PMS_P2;Temp;Humidity;BMP_temperature;BMP_pressure;BME280_temperature;BME280_humidity;BME280_pressure;Samples;Min_cycle;Max_cycle;Signal;HPM_P1;HPM_P2
2022/04/11 00:00:15;;;;;;;6.10;3.28;;;1.50;99.90;;;;;;7319081;32;20103;-60
2022/04/11 00:04:17;;;;;;;5.53;3.22;;;1.50;99.90;;;;;;7319973;32;20194;-61
2022/04/11 00:08:20;;;;;;;5.85;2.60;;;1.50;99.90;;;;;;7324073;32;20165;-61
2022/04/11 00:12:21;;;;;;;9.57;3.40;;;1.50;99.90;;;;;;7323145;32;20133;-61
2022/04/11 00:16:23;;;;;;;4.85;2.97;;;1.50;99.90;;;;;;7320293;32;20336;-60
2022/04/11 00:20:25;;;;;;;9.27;3.95;;;1.50;99.90;;;;;;7316003;32;20115;-60
2022/04/11 00:24:26;;;;;;;5.75;3.12;;;1.50;99.90;;;;;;7318497;32;20107;-62
2022/04/11 00:28:28;;;;;;;7.32;3.53;;;1.50;99.90;;;;;;7319506;32;20298;-61
2022/04/11 00:32:31;;;;;;;9.13;3.10;;;1.40;99.90;;;;;;7320750;32;20108;-60
2022/04/11 00:36:33;;;;;;;6.53;3.10;;;1.40;99.90;;;;;;7319917;32;20131;-61
2022/04/11 00:40:35;;;;;;;7.32;3.00;;;1.50;99.90;;;;;;7321772;32;20537;-61
2022/04/11 00:44:36;;;;;;;7.95;3.35;;;1.50;99.90;;;;;;7323129;32;20099;-60
2022/04/11 00:48:40;;;;;;;10.73;3.97;;;1.60;99.90;;;;;;7315711;32;20265;-59
2022/04/11 00:52:45;;;;;;;5.87;3.05;;;1.50;99.90;;;;;;7319148;32;20108;-58
2022/04/11 00:56:48;;;;;;;4.65;2.87;;;1.60;99.90;;;;;;7318447;32;20167;-60
2022/04/11 01:00:50;;;;;;;6.10;3.37;;;1.60;99.90;;;;;;7320283;32;20139;-61
2022/04/11 01:04:51;;;;;;;8.57;3.30;;;1.60;99.90;;;;;;7321498;32;20134;-59
2022/04/11 01:08:54;;;;;;;3.67;2.85;;;1.60;99.90;;;;;;7319592;32;20206;-59
2022/04/11 01:12:55;;;;;;;8.05;3.22;;;1.60;99.90;;;;;;7321952;32;20112;-60
2022/04/11 01:16:59;;;;;;;5.57;3.40;;;1.60;99.90;;;;;;7316740;32;20133;-59
2022/04/11 01:21:01;;;;;;;4.95;2.87;;;1.70;99.90;;;;;;7317495;32;20209;-60
2022/04/11 01:25:03;;;;;;;10.70;3.55;;;1.70;99.90;;;;;;7319331;32;20229;-60
2022/04/11 01:29:06;;;;;;;5.00;3.35;;;1.60;99.90;;;;;;7320607;32;20206;-60
2022/04/11 01:33:19;;;;;;;3.75;2.62;;;1.70;99.90;;;;;;7316575;32;20495;-59
2022/04/11 01:37:21;;;;;;;7.82;4.03;;;1.70;99.90;;;;;;7316686;32;20203;-59
2022/04/11 01:41:22;;;;;;;5.32;2.92;;;1.80;99.90;;;;;;7318851;32;20241;-60
2022/04/11 01:45:24;;;;;;;4.72;3.05;;;1.70;99.90;;;;;;7319484;32;20153;-61
2022/04/11 01:49:26;;;;;;;4.62;3.22;;;1.70;99.90;;;;;;7319766;32;20188;-61
2022/04/11 01:53:28;;;;;;;5.35;3.08;;;1.70;99.90;;;;;;7320887;32;20111;-62
2022/04/11 01:57:30;;;;;;;4.40;3.00;;;1.80;99.90;;;;;;7319381;32;20188;-60
2022/04/11 02:01:32;;;;;;;9.05;3.37;;;1.90;99.90;;;;;;7318514;32;20213;-62
2022/04/11 02:05:34;;;;;;;5.00;2.97;;;1.90;99.90;;;;;;7319090;32;20174;-60
2022/04/11 02:09:36;;;;;;;5.20;3.10;;;2.00;99.90;;;;;;7317615;32;20115;-60
2022/04/11 02:13:38;;;;;;;5.70;3.08;;;2.10;99.90;;;;;;7315082;32;20119;-60
2022/04/11 02:17:39;;;;;;;9.80;3.40;;;2.20;99.90;;;;;;7308958;32;20137;-60
2022/04/11 02:21:41;;;;;;;6.07;2.72;;;2.30;99.90;;;;;;7320778;32;20813;-61
2022/04/11 02:25:43;;;;;;;5.97;2.47;;;2.40;99.90;;;;;;7308175;32;20345;-61
2022/04/11 02:29:44;;;;;;;4.45;2.60;;;2.50;99.90;;;;;;7310810;32;20553;-59
2022/04/11 02:33:46;;;;;;;4.47;2.60;;;2.70;99.90;;;;;;7313487;32;20183;-59
2022/04/11 02:37:48;;;;;;;5.30;2.40;;;2.80;99.90;;;;;;7315745;32;20111;-59
2022/04/11 02:41:50;;;;;;;4.72;2.55;;;2.80;99.90;;;;;;7311045;32;20130;-59
2022/04/11 02:45:51;;;;;;;5.70;2.42;;;3.00;99.90;;;;;;7313253;32;20626;-60
2022/04/11 02:49:53;;;;;;;4.72;2.45;;;3.00;99.90;;;;;;7311369;32;20580;-59
2022/04/11 02:53:55;;;;;;;5.45;2.40;;;3.00;99.90;;;;;;7315538;32;20654;-59
2022/04/11 02:57:57;;;;;;;5.35;2.78;;;3.00;99.90;;;;;;7314668;32;20126;-61
2022/04/11 03:02:00;;;;;;;6.05;2.75;;;2.90;99.90;;;;;;7315436;32;20134;-60
2022/04/11 03:06:02;;;;;;;3.55;2.80;;;2.90;99.90;;;;;;7319212;32;20503;-59
2022/04/11 03:10:04;;;;;;;4.32;2.33;;;2.80;99.90;;;;;;7324258;32;20312;-59
2022/04/11 03:14:06;;;;;;;5.12;2.55;;;2.80;99.90;;;;;;7314513;32;20500;-61
2022/04/11 03:18:07;;;;;;;4.78;2.47;;;2.70;99.90;;;;;;7312207;32;20229;-60
2022/04/11 03:22:10;;;;;;;5.68;2.70;;;2.60;99.90;;;;;;7309256;32;20222;-60
2022/04/11 03:26:12;;;;;;;6.10;2.78;;;2.50;99.90;;;;;;7311458;32;20199;-59
2022/04/11 03:30:13;;;;;;;3.40;2.25;;;2.50;99.90;;;;;;7319118;32;20256;-59
2022/04/11 03:34:15;;;;;;;3.55;2.30;;;2.40;99.90;;;;;;7319076;32;20134;-58
2022/04/11 03:38:17;;;;;;;7.43;2.70;;;2.30;99.90;;;;;;7323190;32;20137;-61
2022/04/11 03:42:19;;;;;;;5.65;2.95;;;2.20;99.90;;;;;;7322418;32;20137;-60
2022/04/11 03:46:20;;;;;;;6.50;2.67;;;2.20;99.90;;;;;;7320259;32;20138;-60
2022/04/11 03:50:22;;;;;;;5.53;3.05;;;2.10;99.90;;;;;;7319190;32;20124;-60
2022/04/11 03:54:24;;;;;;;3.62;2.55;;;2.10;99.90;;;;;;7322591;32;20478;-59
2022/04/11 03:58:26;;;;;;;5.32;2.75;;;2.00;99.90;;;;;;7316216;32;20190;-59
2022/04/11 04:02:34;;;;;;;5.78;2.70;;;2.00;99.90;;;;;;7321708;32;20222;-59
2022/04/11 04:06:36;;;;;;;7.18;2.87;;;2.00;99.90;;;;;;7321492;32;20115;-60
2022/04/11 04:10:39;;;;;;;5.30;2.87;;;1.90;99.90;;;;;;7321037;32;20475;-60
2022/04/11 04:14:40;;;;;;;5.00;2.80;;;1.80;99.90;;;;;;7315592;32;20111;-60
2022/04/11 04:18:42;;;;;;;4.80;2.92;;;1.80;99.90;;;;;;7320409;32;20129;-61
2022/04/11 04:22:44;;;;;;;5.85;2.58;;;1.70;99.90;;;;;;7319395;32;20879;-61
2022/04/11 04:26:46;;;;;;;4.22;2.53;;;1.60;99.90;;;;;;7313836;32;20226;-60
2022/04/11 04:30:47;;;;;;;4.85;2.87;;;1.60;99.90;;;;;;7318661;32;20257;-61
2022/04/11 04:34:49;;;;;;;7.90;3.22;;;1.50;99.90;;;;;;7317326;32;20518;-59
2022/04/11 04:38:51;;;;;;;6.03;2.87;;;1.40;99.90;;;;;;7316585;32;20115;-60
2022/04/11 04:42:52;;;;;;;7.10;3.35;;;1.40;99.90;;;;;;7321271;32;20519;-60
2022/04/11 04:46:54;;;;;;;6.80;2.97;;;1.40;99.90;;;;;;7316815;32;20236;-63
2022/04/11 04:50:56;;;;;;;5.80;2.87;;;1.30;99.90;;;;;;7318599;32;20124;-61
2022/04/11 04:54:59;;;;;;;5.22;2.97;;;1.30;99.90;;;;;;7313279;32;20220;-62
2022/04/11 04:59:00;;;;;;;12.70;3.30;;;1.30;99.90;;;;;;7316815;32;20107;-63
2022/04/11 05:03:02;;;;;;;6.65;2.62;;;1.20;99.90;;;;;;7313988;32;20252;-60
2022/04/11 05:07:04;;;;;;;5.05;2.92;;;1.20;99.90;;;;;;7311973;32;20221;-62
2022/04/11 05:11:05;;;;;;;9.27;3.05;;;1.20;99.90;;;;;;7316548;32;20511;-61
2022/04/11 05:15:08;;;;;;;9.63;3.00;;;1.20;99.90;;;;;;7318727;32;20112;-63
2022/04/11 05:19:09;;;;;;;6.22;2.85;;;1.30;99.90;;;;;;7317593;32;20237;-61
2022/04/11 05:23:11;;;;;;;5.37;3.00;;;1.30;99.90;;;;;;7314000;32;20126;-59
2022/04/11 05:27:13;;;;;;;5.45;2.95;;;1.30;99.90;;;;;;7317151;32;20531;-61
2022/04/11 05:31:15;;;;;;;5.25;3.10;;;1.20;99.90;;;;;;7316553;32;20199;-61
2022/04/11 05:35:17;;;;;;;7.53;3.03;;;1.30;99.90;;;;;;7309113;32;20239;-62
2022/04/11 05:39:19;;;;;;;6.78;2.90;;;1.30;99.90;;;;;;7306888;32;20116;-62
2022/04/11 05:43:20;;;;;;;6.45;3.20;;;1.40;99.90;;;;;;7319501;32;20651;-62
2022/04/11 05:47:22;;;;;;;4.82;2.90;;;1.40;99.90;;;;;;7313481;32;20131;-60
2022/04/11 05:51:25;;;;;;;8.63;3.37;;;1.60;99.90;;;;;;7314232;32;20129;-60
2022/04/11 05:55:27;;;;;;;5.60;2.37;;;1.70;99.90;;;;;;7306942;32;20231;-61
2022/04/11 05:59:29;;;;;;;6.03;3.12;;;1.90;99.90;;;;;;7310090;32;20744;-62
2022/04/11 06:03:31;;;;;;;5.95;2.55;;;2.00;99.90;;;;;;7315052;32;20169;-60
2022/04/11 06:07:33;;;;;;;10.10;2.95;;;2.30;99.90;;;;;;7310981;32;20221;-61
2022/04/11 06:11:35;;;;;;;9.73;2.40;;;2.50;99.90;;;;;;7316734;32;20202;-62
2022/04/11 06:15:36;;;;;;;5.55;2.70;;;2.90;99.90;;;;;;7316215;32;20158;-62
2022/04/11 06:19:38;;;;;;;4.57;2.40;;;3.20;99.90;;;;;;7318273;32;20234;-62
2022/04/11 06:23:39;;;;;;;4.95;2.05;;;3.40;99.90;;;;;;7312364;32;20546;-61
2022/04/11 06:27:41;;;;;;;3.97;1.80;;;3.70;99.90;;;;;;7316933;32;20130;-60
2022/04/11 06:31:43;;;;;;;6.68;1.77;;;4.00;99.90;;;;;;7314996;32;20520;-60
2022/04/11 06:35:45;;;;;;;6.05;2.08;;;4.30;99.90;;;;;;7317233;32;20202;-63
2022/04/11 06:39:46;;;;;;;3.67;2.40;;;4.60;99.90;;;;;;7317652;32;20129;-62
2022/04/11 06:43:48;;;;;;;4.18;1.92;;;4.90;99.90;;;;;;7311890;32;20142;-62
2022/04/11 06:47:50;;;;;;;3.30;1.45;;;5.20;99.90;;;;;;7316032;32;20222;-61
2022/04/11 06:51:51;;;;;;;5.32;1.90;;;5.50;99.90;;;;;;7317610;32;20130;-63
2022/04/11 06:55:53;;;;;;;4.10;1.58;;;5.70;99.90;;;;;;7315879;32;20241;-62
2022/04/11 07:00:01;;;;;;;6.00;1.73;;;6.00;99.90;;;;;;7315241;32;20139;-62
2022/04/11 07:04:03;;;;;;;4.25;1.70;;;6.20;99.90;;;;;;7312340;32;20103;-62
2022/04/11 07:08:06;;;;;;;5.28;1.50;;;6.40;99.90;;;;;;7316119;32;20214;-61
2022/04/11 07:12:08;;;;;;;4.53;1.50;;;6.60;99.90;;;;;;7311715;32;20200;-62
2022/04/11 07:16:09;;;;;;;7.03;1.65;;;6.80;99.90;;;;;;7313282;32;20108;-63
2022/04/11 07:20:12;;;;;;;3.50;1.50;;;6.90;99.90;;;;;;7314259;32;20100;-62
2022/04/11 07:24:14;;;;;;;4.72;1.62;;;7.20;99.90;;;;;;7313059;32;20578;-62
2022/04/11 07:28:17;;;;;;;4.03;1.37;;;7.40;99.90;;;;;;7315355;32;20115;-62
2022/04/11 07:32:18;;;;;;;3.37;1.23;;;7.80;99.90;;;;;;7314378;32;20138;-63
2022/04/11 07:36:20;;;;;;;7.87;1.70;;;8.00;99.90;;;;;;7314202;32;20416;-62
2022/04/11 07:40:21;;;;;;;3.55;1.67;;;8.80;99.90;;;;;;7313426;32;20142;-62
2022/04/11 07:44:23;;;;;;;5.28;1.77;;;9.40;99.90;;;;;;7315430;32;20599;-62
2022/04/11 07:48:25;;;;;;;2.85;1.30;;;10.00;99.90;;;;;;7311079;32;20379;-63
2022/04/11 07:52:26;;;;;;;4.87;1.60;;;10.80;99.90;;;;;;7319123;32;20524;-61
2022/04/11 07:56:29;;;;;;;5.18;2.10;;;11.10;99.90;;;;;;7313464;32;20726;-62
2022/04/11 08:00:30;;;;;;;3.05;1.65;;;11.20;99.90;;;;;;7315539;32;20134;-63
2022/04/11 08:04:32;;;;;;;5.10;1.95;;;11.50;99.90;;;;;;7317655;32;20138;-62
2022/04/11 08:08:34;;;;;;;4.75;1.85;;;11.80;99.90;;;;;;7318034;32;20135;-60
2022/04/11 08:12:35;;;;;;;4.07;1.77;;;12.20;96.90;;;;;;7319539;32;20754;-61
2022/04/11 08:16:37;;;;;;;4.62;1.52;;;12.80;98.40;;;;;;7318719;32;20111;-62
2022/04/11 08:20:39;;;;;;;5.25;1.85;;;13.50;93.20;;;;;;7320283;32;20134;-63
2022/04/11 08:24:40;;;;;;;3.45;1.80;;;13.70;90.50;;;;;;7317778;32;20421;-63
2022/04/11 08:28:42;;;;;;;3.60;1.50;;;13.80;88.20;;;;;;7319933;32;20111;-63
2022/04/11 08:32:46;;;;;;;4.03;1.62;;;14.20;84.00;;;;;;7317496;32;20107;-61
2022/04/11 08:36:48;;;;;;;6.25;2.10;;;14.80;85.50;;;;;;7318191;32;20138;-63
2022/04/11 08:40:54;;;;;;;4.22;1.60;;;15.00;81.80;;;;;;7316798;32;20730;-62
2022/04/11 08:44:59;;;;;;;3.10;1.50;;;15.40;77.90;;;;;;7318089;32;20526;-62
2022/04/11 08:49:03;;;;;;;3.28;1.48;;;16.00;74.70;;;;;;7315223;32;20214;-61
2022/04/11 08:53:05;;;;;;;4.45;1.80;;;16.10;69.60;;;;;;7318738;32;20198;-64
2022/04/11 08:57:07;;;;;;;5.30;1.70;;;16.30;68.90;;;;;;7317716;32;20625;-63
2022/04/11 09:01:09;;;;;;;3.70;1.70;;;17.00;65.10;;;;;;7315125;32;20511;-62
2022/04/11 09:05:17;;;;;;;4.43;1.70;;;17.40;62.60;;;;;;7309556;32;20226;-63
2022/04/11 09:09:37;;;;;;;4.32;1.60;;;17.20;59.10;;;;;;7316178;32;20108;-59
2022/04/11 09:13:50;;;;;;;3.62;1.48;;;16.90;62.90;;;;;;7316566;32;20261;-62
2022/04/11 09:17:54;;;;;;;3.80;1.65;;;16.50;64.00;;;;;;7316675;32;20112;-61
2022/04/11 09:21:56;;;;;;;4.07;1.70;;;16.70;67.80;;;;;;7318701;32;20229;-63
2022/04/11 09:26:14;;;;;;;6.10;1.80;;;17.20;63.30;;;;;;7318109;32;20167;-63
2022/04/11 09:30:28;;;;;;;4.30;1.40;;;17.20;58.20;;;;;;7315355;32;20229;-62
2022/04/11 09:34:30;;;;;;;3.50;1.77;;;17.50;62.80;;;;;;7317140;32;20134;-62
2022/04/11 09:38:39;;;;;;;4.20;1.20;;;18.10;57.00;;;;;;7317644;32;20271;-59
2022/04/11 09:42:40;;;;;;;3.67;1.10;;;18.20;56.70;;;;;;7316702;32;20482;-60
2022/04/11 09:46:45;;;;;;;4.70;1.50;;;19.10;59.60;;;;;;7310143;32;20108;-60
2022/04/11 09:50:47;;;;;;;4.00;1.60;;;19.50;53.30;;;;;;7312967;32;20134;-62
2022/04/11 09:54:50;;;;;;;6.25;1.30;;;20.10;51.90;;;;;;7314484;32;20605;-62
2022/04/11 09:58:52;;;;;;;6.12;1.62;;;20.20;50.50;;;;;;7314647;32;20635;-62
2022/04/11 10:02:55;;;;;;;3.35;1.40;;;18.30;52.10;;;;;;7314405;32;20496;-63
2022/04/11 10:06:57;;;;;;;2.58;1.37;;;19.40;55.10;;;;;;7311736;32;20157;-61
2022/04/11 10:10:59;;;;;;;4.00;1.60;;;20.30;49.90;;;;;;7317114;32;20561;-63
2022/04/11 10:15:01;;;;;;;3.67;1.95;;;19.70;51.00;;;;;;7312495;32;20218;-62
2022/04/11 10:19:04;;;;;;;1.92;1.10;;;18.80;51.10;;;;;;7318638;32;20100;-61
2022/04/11 10:23:25;;;;;;;6.93;1.85;;;19.80;54.00;;;;;;7314499;32;20190;-63
2022/04/11 10:27:27;;;;;;;6.32;1.50;;;21.30;51.00;;;;;;7315486;32;20139;-61
2022/04/11 10:31:36;;;;;;;3.20;1.50;;;21.20;46.10;;;;;;7313105;32;20225;-61
2022/04/11 10:35:40;;;;;;;4.30;1.60;;;21.50;48.40;;;;;;7314567;32;20119;-62
2022/04/11 10:39:44;;;;;;;3.92;1.80;;;19.50;49.70;;;;;;7315979;32;20230;-62
2022/04/11 10:44:24;;;;;;;4.05;1.50;;;20.20;46.60;;;;;;7306673;32;20210;-61
2022/04/11 10:48:56;;;;;;;3.40;1.45;;;19.90;48.10;;;;;;7298033;32;20218;-61
2022/04/11 10:53:23;;;;;;;3.20;1.40;;;20.00;48.40;;;;;;7308371;32;20138;-61
2022/04/11 10:57:39;;;;;;;4.80;1.40;;;17.30;51.30;;;;;;7310150;32;20202;-60
2022/04/11 11:01:44;;;;;;;3.35;1.33;;;17.80;54.10;;;;;;7309133;32;20119;-61
2022/04/11 11:05:52;;;;;;;4.45;1.48;;;18.20;53.30;;;;;;7308658;32;20425;-61
2022/04/11 11:09:58;;;;;;;2.53;1.15;;;18.00;51.30;;;;;;7311475;32;20137;-61
2022/04/11 11:14:00;;;;;;;3.70;1.50;;;17.60;52.00;;;;;;7312925;32;20131;-63
2022/04/11 11:18:06;;;;;;;6.82;1.55;;;18.20;53.30;;;;;;7310205;32;20909;-61
2022/04/11 11:22:08;;;;;;;3.83;1.65;;;18.10;52.20;;;;;;7317758;32;20103;-61
2022/04/11 11:26:12;;;;;;;3.12;1.40;;;17.90;50.50;;;;;;7320689;32;20133;-61
2022/04/11 11:30:14;;;;;;;3.40;1.50;;;17.60;52.40;;;;;;7317237;32;20116;-63
2022/04/11 11:34:18;;;;;;;2.95;1.48;;;17.50;51.70;;;;;;7319130;32;20202;-61
2022/04/11 11:38:23;;;;;;;3.95;1.50;;;17.60;50.50;;;;;;7319506;32;20111;-63
2022/04/11 11:42:25;;;;;;;5.07;2.10;;;17.50;53.80;;;;;;7319622;32;20145;-63
2022/04/11 11:46:27;;;;;;;6.10;1.87;;;17.70;53.90;;;;;;7320437;32;20626;-62
2022/04/11 11:50:29;;;;;;;3.15;1.67;;;17.70;53.90;;;;;;7321135;32;20159;-62
2022/04/11 11:54:39;;;;;;;2.92;1.62;;;17.60;54.50;;;;;;7321125;32;20255;-62
2022/04/11 11:58:41;;;;;;;3.00;1.70;;;17.30;53.00;;;;;;7314331;32;20130;-62
2022/04/11 12:07:05;;;;;;;3.67;1.70;;;17.40;52.50;;;;;;7310634;32;20194;-61
2022/04/11 12:11:06;;;;;;;3.55;1.70;;;17.40;54.50;;;;;;7318508;32;20257;-60
2022/04/11 12:15:09;;;;;;;2.28;1.37;;;17.30;53.00;;;;;;7313219;32;20666;-62
2022/04/11 12:19:10;;;;;;;4.57;1.70;;;17.30;55.80;;;;;;7317932;32;20107;-63
2022/04/11 12:23:14;;;;;;;4.03;1.70;;;17.20;55.60;;;;;;7320373;32;20159;-60
2022/04/11 12:27:21;;;;;;;5.85;1.48;;;17.20;51.70;;;;;;7311826;32;20115;-62
2022/04/11 12:31:23;;;;;;;2.70;1.40;;;16.50;52.90;;;;;;7312399;32;20115;-61
2022/04/11 12:35:25;;;;;;;2.70;1.33;;;16.80;57.30;;;;;;7320651;32;20155;-60
2022/04/11 12:39:26;;;;;;;1.87;1.27;;;17.00;56.90;;;;;;7316561;32;20217;-62
2022/04/11 12:43:28;;;;;;;4.47;1.80;;;17.10;53.00;;;;;;7313270;32;20111;-62
2022/04/11 12:47:30;;;;;;;3.78;1.20;;;17.10;51.80;;;;;;7313292;32;20107;-63
2022/04/11 12:51:32;;;;;;;1.92;1.05;;;16.90;54.80;;;;;;7320664;32;20168;-62
2022/04/11 12:55:34;;;;;;;2.85;1.37;;;16.90;58.10;;;;;;7316187;32;20257;-63
2022/04/11 12:59:42;;;;;;;3.55;1.50;;;16.90;53.90;;;;;;7324718;32;20202;-61
2022/04/11 13:03:43;;;;;;;;;;;17.40;56.20;;;;;;7319091;32;20134;-60
2022/04/11 13:07:49;;;;;;;3.10;1.40;;;16.90;53.30;;;;;;7320226;32;20469;-62
2022/04/11 13:11:52;;;;;;;3.33;1.45;;;16.10;53.20;;;;;;7319852;32;20238;-61
2022/04/11 13:20:30;;;;;;;3.30;1.33;;;17.00;54.50;;;;;;7314793;32;20103;-60
2022/04/11 13:24:32;;;;;;;5.10;1.15;;;17.30;52.00;;;;;;7320209;32;20582;-61
2022/04/11 13:28:33;;;;;;;4.25;1.40;;;17.70;55.10;;;;;;7318839;32;20220;-62
2022/04/11 13:32:35;;;;;;;2.33;0.90;;;17.80;52.30;;;;;;7320790;32;20112;-62
2022/04/11 13:36:37;;;;;;;2.87;1.02;;;17.80;51.20;;;;;;7321029;32;20118;-61
2022/04/11 13:40:39;;;;;;;1.92;1.10;;;17.80;51.50;;;;;;7317724;32;20139;-63
2022/04/11 13:44:40;;;;;;;3.42;1.10;;;17.90;52.10;;;;;;7319481;32;20111;-60
2022/04/11 13:48:42;;;;;;;1.50;0.90;;;18.00;51.90;;;;;;7320725;32;20610;-61
2022/04/11 13:52:44;;;;;;;2.37;1.23;;;18.10;49.20;;;;;;7313241;32;20245;-61
2022/04/11 13:56:46;;;;;;;2.60;1.10;;;18.10;49.80;;;;;;7309627;32;20104;-61
2022/04/11 14:00:47;;;;;;;3.30;1.25;;;17.70;50.00;;;;;;7311725;32;20813;-61
2022/04/11 14:04:49;;;;;;;3.65;1.20;;;17.90;50.30;;;;;;7318485;32;20283;-62
2022/04/11 14:08:50;;;;;;;3.85;1.08;;;17.90;49.50;;;;;;7317174;32;20146;-60
2022/04/11 14:12:52;;;;;;;3.40;1.20;;;18.00;48.20;;;;;;7312777;32;20130;-61
2022/04/11 14:16:54;;;;;;;2.97;1.10;;;17.60;46.20;;;;;;7319274;32;20127;-62
2022/04/11 14:20:57;;;;;;;3.53;1.25;;;17.60;49.20;;;;;;7317115;32;20108;-60
2022/04/11 14:24:59;;;;;;;1.62;1.08;;;17.60;49.50;;;;;;7316939;32;20553;-62
2022/04/11 14:29:13;;;;;;;3.80;1.30;;;17.90;49.90;;;;;;7314198;32;20111;-62
2022/04/11 14:33:16;;;;;;;5.07;1.10;;;18.10;49.10;;;;;;7320850;32;20186;-61
2022/04/11 14:37:18;;;;;;;4.10;1.30;;;18.20;47.10;;;;;;7317455;32;20107;-63
2022/04/11 14:41:19;;;;;;;3.78;1.42;;;18.20;44.40;;;;;;7316961;32;20329;-60
2022/04/11 14:45:21;;;;;;;2.78;1.37;;;18.00;46.20;;;;;;7314834;32;20655;-60
2022/04/11 14:49:23;;;;;;;2.67;1.20;;;18.10;47.80;;;;;;7318334;32;20134;-60
2022/04/11 14:53:44;;;;;;;4.90;1.80;;;18.40;46.80;;;;;;7315463;32;20096;-60
2022/04/11 14:57:46;;;;;;;2.55;1.10;;;18.50;48.00;;;;;;7318752;32;20213;-61
2022/04/11 15:01:48;;;;;;;2.85;1.10;;;18.10;47.70;;;;;;7321125;32;20137;-60
2022/04/11 15:05:49;;;;;;;2.15;1.27;;;17.70;48.50;;;;;;7319428;32;20168;-60
2022/04/11 15:09:51;;;;;;;3.92;1.30;;;17.40;47.00;;;;;;7319910;32;20135;-61
2022/04/11 15:13:53;;;;;;;2.45;1.30;;;17.50;49.60;;;;;;7318455;32;20126;-60
2022/04/11 15:17:55;;;;;;;3.45;1.25;;;17.30;49.80;;;;;;7317635;32;20111;-61
2022/04/11 15:21:59;;;;;;;3.20;1.20;;;17.30;49.50;;;;;;7317988;32;20289;-61
2022/04/11 15:26:01;;;;;;;4.28;1.55;;;17.30;50.50;;;;;;7322222;32;20115;-61
2022/04/11 15:30:04;;;;;;;5.57;1.20;;;16.80;50.50;;;;;;7318093;32;20588;-60
2022/04/11 15:34:09;;;;;;;2.97;1.33;;;16.80;51.40;;;;;;7326829;32;20151;-60
2022/04/11 15:38:19;;;;;;;4.15;1.50;;;16.90;51.40;;;;;;7320572;32;20188;-61
2022/04/11 15:42:20;;;;;;;3.12;1.42;;;16.50;51.80;;;;;;7313060;32;20141;-60
2022/04/11 15:46:22;;;;;;;4.15;1.33;;;16.60;54.10;;;;;;7320714;32;20111;-61
2022/04/11 15:50:24;;;;;;;3.50;1.40;;;16.50;53.50;;;;;;7320744;32;20428;-61
2022/04/11 15:54:44;;;;;;;2.97;1.35;;;16.40;51.10;;;;;;7319020;32;20159;-59
2022/04/11 15:58:46;;;;;;;2.62;1.30;;;16.40;50.00;;;;;;7315372;32;20119;-58
2022/04/11 16:02:48;;;;;;;5.03;1.58;;;16.60;49.70;;;;;;7318475;32;20123;-59
2022/04/11 16:06:49;;;;;;;1.70;1.00;;;16.40;49.70;;;;;;7319984;32;20574;-60
2022/04/11 16:10:51;;;;;;;1.67;1.05;;;16.30;51.60;;;;;;7315920;32;20158;-59
2022/04/11 16:14:53;;;;;;;2.65;1.15;;;16.30;50.70;;;;;;7317145;32;20593;-59
2022/04/11 16:18:55;;;;;;;1.98;1.10;;;16.20;50.20;;;;;;7312207;32;20507;-60
2022/04/11 16:22:56;;;;;;;3.20;1.02;;;16.00;48.40;;;;;;7318169;32;20111;-59
2022/04/11 16:26:58;;;;;;;2.37;1.20;;;15.90;49.90;;;;;;7317998;32;20130;-59
2022/04/11 16:31:00;;;;;;;2.95;1.10;;;15.80;52.60;;;;;;7306646;32;20717;-59
2022/04/11 16:35:02;;;;;;;2.83;1.00;;;15.70;52.30;;;;;;7318117;32;20115;-60
2022/04/11 16:39:23;;;;;;;2.67;0.95;;;15.70;51.50;;;;;;7311283;32;20779;-59
2022/04/11 16:43:25;;;;;;;2.42;1.20;;;15.60;51.70;;;;;;7323381;32;20199;-60
2022/04/11 16:47:27;;;;;;;2.87;1.00;;;15.50;51.30;;;;;;7325974;32;20809;-59
2022/04/11 16:51:28;;;;;;;2.40;1.00;;;15.30;51.50;;;;;;7322666;32;20170;-60
2022/04/11 16:55:30;;;;;;;2.58;1.20;;;15.30;53.10;;;;;;7325172;32;20198;-60
2022/04/11 16:59:33;;;;;;;2.33;1.00;;;15.10;53.00;;;;;;7303077;32;20217;-59
2022/04/11 17:03:36;;;;;;;1.85;1.10;;;14.90;52.80;;;;;;7314960;32;20138;-60
2022/04/11 17:07:38;;;;;;;2.83;1.20;;;14.80;53.70;;;;;;7325402;32;20130;-60
2022/04/11 17:11:40;;;;;;;3.00;1.10;;;14.80;54.80;;;;;;7325647;32;20129;-60
2022/04/11 17:20:03;;;;;;;4.62;1.17;;;14.60;55.60;;;;;;7306447;32;20190;-59
2022/04/11 17:24:06;;;;;;;1.58;1.00;;;14.40;55.30;;;;;;7315295;32;20984;-60
2022/04/11 17:28:08;;;;;;;2.65;1.10;;;14.20;58.70;;;;;;7319835;32;20222;-60
2022/04/11 17:32:09;;;;;;;2.67;0.93;;;14.10;56.80;;;;;;7319439;32;20142;-60
2022/04/11 17:36:11;;;;;;;2.53;1.33;;;14.10;58.30;;;;;;7318517;32;20112;-60
2022/04/11 17:40:13;;;;;;;1.65;0.80;;;13.90;58.20;;;;;;7320809;32;20731;-60
2022/04/11 17:44:15;;;;;;;3.67;1.35;;;13.80;59.80;;;;;;7318966;32;20115;-60
2022/04/11 17:48:17;;;;;;;3.45;1.05;;;13.70;60.40;;;;;;7316783;32;20210;-59
2022/04/11 17:52:18;;;;;;;2.67;1.20;;;13.60;61.90;;;;;;7319370;32;20225;-60
2022/04/11 17:56:20;;;;;;;3.58;1.15;;;13.40;62.00;;;;;;7319906;32;20143;-60
2022/04/11 18:00:22;;;;;;;2.53;1.30;;;13.30;63.50;;;;;;7318035;32;20103;-60
2022/04/11 18:04:25;;;;;;;6.05;1.33;;;13.10;64.90;;;;;;7319730;32;20191;-63
2022/04/11 18:08:27;;;;;;;4.12;2.80;;;12.90;64.10;;;;;;7317740;32;20763;-61
2022/04/11 18:12:28;;;;;;;9.52;5.68;;;12.80;68.50;;;;;;7319480;32;20119;-61
2022/04/11 18:16:30;;;;;;;5.62;3.00;;;12.60;67.10;;;;;;7319161;32;20145;-63
2022/04/11 18:20:33;;;;;;;3.37;1.60;;;12.50;69.40;;;;;;7315181;32;20108;-61
2022/04/11 18:24:35;;;;;;;4.82;1.85;;;12.30;67.90;;;;;;7319490;32;20586;-62
2022/04/11 18:32:58;;;;;;;2.72;1.45;;;12.10;72.80;;;;;;7321724;32;20141;-61
2022/04/11 18:37:01;;;;;;;3.17;1.48;;;11.90;78.10;;;;;;7319916;32;20138;-62
2022/04/11 18:41:02;;;;;;;2.80;1.00;;;11.70;82.90;;;;;;7310525;32;20627;-60
2022/04/11 18:45:09;;;;;;;4.35;1.42;;;11.60;92.70;;;;;;7318372;32;20121;-59
2022/04/11 18:49:11;;;;;;;2.17;1.10;;;11.30;96.50;;;;;;7318446;32;20518;-61
2022/04/11 18:53:12;;;;;;;3.08;1.20;;;11.20;99.90;;;;;;7316349;32;20164;-60
2022/04/11 18:57:15;;;;;;;1.58;1.00;;;11.00;99.90;;;;;;7318528;32;20115;-59
2022/04/11 19:01:18;;;;;;;5.05;1.10;;;10.90;99.90;;;;;;7316742;32;20812;-60
2022/04/11 19:05:20;;;;;;;2.83;1.10;;;10.50;99.90;;;;;;7318399;32;20179;-63
2022/04/11 19:09:22;;;;;;;6.15;1.40;;;10.30;99.90;;;;;;7323725;32;20214;-60
2022/04/11 19:13:23;;;;;;;3.50;1.00;;;10.10;99.90;;;;;;7321104;32;20138;-61
2022/04/11 19:17:27;;;;;;;4.43;1.00;;;10.00;99.90;;;;;;7325385;32;20233;-60
2022/04/11 19:21:29;;;;;;;5.05;1.42;;;9.80;99.90;;;;;;7320014;32;20207;-61
2022/04/11 19:25:31;;;;;;;6.35;1.42;;;9.60;99.90;;;;;;7329815;32;20153;-62
2022/04/11 19:29:34;;;;;;;5.57;1.40;;;9.40;99.90;;;;;;7327070;32;20539;-59
2022/04/11 19:33:36;;;;;;;5.97;1.75;;;9.20;99.90;;;;;;7317397;32;20231;-61
2022/04/11 19:37:40;;;;;;;4.80;1.77;;;9.10;99.90;;;;;;7312236;32;20214;-59
2022/04/11 19:41:42;;;;;;;3.42;1.33;;;8.90;99.90;;;;;;7324165;32;20183;-59
2022/04/11 19:45:43;;;;;;;6.45;1.70;;;8.70;99.90;;;;;;7320008;32;20668;-61
2022/04/11 19:49:48;;;;;;;5.90;1.35;;;8.50;99.90;;;;;;7318273;32;20716;-61
2022/04/11 19:53:50;;;;;;;6.28;1.67;;;8.40;99.90;;;;;;7330358;32;20167;-61
2022/04/11 19:57:53;;;;;;;3.58;1.67;;;8.30;99.90;;;;;;7316076;32;20285;-61
2022/04/11 20:01:55;;;;;;;4.28;1.92;;;8.10;99.90;;;;;;7320914;32;20980;-60
2022/04/11 20:05:57;;;;;;;3.28;1.80;;;7.90;99.90;;;;;;7322112;32;20107;-62
2022/04/11 20:09:58;;;;;;;5.32;1.90;;;7.80;99.90;;;;;;7321431;32;20115;-61
2022/04/11 20:14:00;;;;;;;5.20;1.90;;;7.70;99.90;;;;;;7321480;32;20443;-60
2022/04/11 20:18:04;;;;;;;7.37;1.70;;;7.60;99.90;;;;;;7321507;32;20673;-60
2022/04/11 20:22:05;;;;;;;5.22;1.75;;;7.60;99.90;;;;;;7319466;32;20582;-59
2022/04/11 20:26:07;;;;;;;7.45;1.87;;;7.50;99.90;;;;;;7319393;32;20554;-61
2022/04/11 20:30:10;;;;;;;5.18;2.30;;;7.50;99.90;;;;;;7314093;32;20124;-61
2022/04/11 20:34:11;;;;;;;9.48;2.37;;;7.40;99.90;;;;;;7321077;32;20134;-58
2022/04/11 20:38:13;;;;;;;2.58;1.62;;;7.50;99.90;;;;;;7319515;32;20540;-60
2022/04/11 20:42:15;;;;;;;3.42;1.45;;;7.60;99.90;;;;;;7322169;32;20186;-59
2022/04/11 20:46:17;;;;;;;5.03;2.05;;;7.70;99.90;;;;;;7317910;32;20115;-59
2022/04/11 20:50:19;;;;;;;4.12;1.92;;;7.80;99.90;;;;;;7320061;32;20172;-60
2022/04/11 20:58:41;;;;;;;3.00;1.30;;;8.00;99.90;;;;;;7319575;32;20533;-60
2022/04/11 21:02:43;;;;;;;4.37;1.60;;;8.20;99.90;;;;;;7324875;32;20238;-60
2022/04/11 21:06:45;;;;;;;4.15;1.62;;;8.30;99.90;;;;;;7321434;32;20303;-60
2022/04/11 21:10:46;;;;;;;4.47;1.67;;;8.50;99.90;;;;;;7314660;32;20262;-60
2022/04/11 21:14:48;;;;;;;3.28;1.65;;;8.70;99.90;;;;;;7329066;32;20137;-58
2022/04/11 21:18:50;;;;;;;3.25;1.73;;;8.80;99.90;;;;;;7321442;32;20120;-60
2022/04/11 21:22:52;;;;;;;4.68;1.70;;;8.80;99.90;;;;;;7315352;32;20146;-60
2022/04/11 21:26:53;;;;;;;2.83;1.30;;;8.90;99.90;;;;;;7317866;32;20111;-61
2022/04/11 21:30:55;;;;;;;4.72;1.90;;;9.00;99.90;;;;;;7324010;32;20249;-59
2022/04/11 21:34:57;;;;;;;2.58;1.20;;;9.20;99.90;;;;;;7317128;32;20119;-59